DFW Logo
DALLAS/FORT WORTH METROPLEX WEATHER
90°F
DFW AIRPORT OBSERVATIONS
WINDPRESSURE
STATIONDATETIMETEMPDEWRHWCHIDIRSPEEDVISIBILITYWEATHERCLOUDSSLSTALTRAINFLIGHT RULES
(F)(F)(%)(F)(F)(mph)(miles)(x100 ft)(mb)(inHg)(inHg)(in)
KDFW5/20/20244:53 pm90674793S21G3110.00WindyCLR0 1006.1029.1629.740.00VFR
KDFW5/20/20243:53 pm90674793S17G2810.00WindyCLR0 1006.8029.1829.760.00VFR
KDFW5/20/20242:53 pm89664792SSE18G3310.00WindyCLR0 1007.7029.2129.790.00VFR
KDFW5/20/20241:53 pm89664792S18G2810.00WindyCLR0 1008.3029.2329.810.00VFR
KDFW5/20/202412:53 pm88664890S1710.00SunnyCLR0 1008.7029.2429.820.00VFR
KDFW5/20/202411:53 am86654988S20G3010.00WindyCLR0 1009.3029.2529.830.00VFR
KDFW5/20/202410:53 am84645185S18G3010.00WindyCLR0 1009.2029.2529.830.00VFR
KDFW5/20/20249:53 am81655883S16G2510.00WindyCLR0 1009.9029.2729.850.00VFR
KDFW5/20/20248:53 am786462S1410.00Mostly SunnyFEW150 1009.9029.2729.850.00VFR
KDFW5/20/20247:53 am756469SSE1310.00Mostly SunnyFEW150 1009.9029.2729.850.00VFR
KDFW5/20/20246:53 am736474SSE1010.00Mostly SunnyFEW150 FEW200 1009.5029.2629.840.00VFR
KDFW5/20/20245:53 am746676S1210.00Mostly ClearFEW150 1008.6029.2429.820.00VFR
KDFW5/20/20244:53 am756674S1410.00Mostly ClearFEW150 1007.8029.2129.790.00VFR
KDFW5/20/20243:53 am776771S1610.00Partly CloudySCT150 1007.8029.2129.790.00VFR
KDFW5/20/20242:53 am776771S16G2210.00Mostly ClearFEW250 1007.6029.2129.790.00VFR
KDFW5/20/20241:53 am786769SSE1210.00ClearCLR0 1007.8029.2129.790.00VFR
KDFW5/20/202412:53 am786769SSE910.00ClearCLR0 1008.3029.2329.810.00VFR
Updated: May 20, 2024 - 4:53 pm

STATIONDATETIMEMETAR
KDFW5/20/20244:53 pmKDFW 202153Z 18018G27KT 10SM CLR 32/19 A2974 RMK AO2 PK WND 15027/2146 SLP061 T03220194
KDFW5/20/20243:53 pmKDFW 202053Z 17015G24KT 10SM CLR 32/19 A2976 RMK AO2 PK WND 14026/1957 SLP068 T03220194 58019
KDFW5/20/20242:53 pmKDFW 201953Z 15016G29KT 10SM CLR 32/19 A2979 RMK AO2 PK WND 17029/1950 SLP077 T03170189
KDFW5/20/20241:53 pmKDFW 201853Z 17016G24KT 10SM CLR 32/19 A2981 RMK AO2 PK WND 18026/1839 SLP083 T03170189
KDFW5/20/202412:53 pmKDFW 201753Z 17015KT 10SM CLR 31/19 A2982 RMK AO2 PK WND 17026/1713 SLP087 T03110189 10311 20228 56012
KDFW5/20/202411:53 amKDFW 201653Z 18017G26KT 10SM CLR 30/18 A2983 RMK AO2 PK WND 17029/1605 SLP093 T03000183
KDFW5/20/202410:53 amKDFW 201553Z 17016G26KT 10SM CLR 29/18 A2983 RMK AO2 PK WND 16027/1516 SLP092 T02890178
KDFW5/20/20249:53 amKDFW 201453Z 17014G22KT 10SM CLR 27/18 A2985 RMK AO2 SLP099 T02720183 51005
KDFW5/20/20248:53 amKDFW 201353Z 17012KT 10SM FEW150 26/18 A2985 RMK AO2 SLP099 T02560178
KDFW5/20/20247:53 amKDFW 201253Z 16011KT 10SM FEW150 24/18 A2985 RMK AO2 SLP099 T02390178
KDFW5/20/20246:53 amKDFW 201153Z 16009KT 10SM FEW150 FEW200 23/18 A2984 RMK AO2 SLP095 T02280178 10256 20228 53016
KDFW5/20/20245:53 amKDFW 201053Z 18010KT 10SM FEW150 23/19 A2982 RMK AO2 SLP086 T02330189
KDFW5/20/20244:53 amKDFW 200953Z 18012KT 10SM FEW150 24/19 A2979 RMK AO2 SLP078 T02390189
KDFW5/20/20243:53 amKDFW 200853Z 18014KT 10SM SCT150 25/19 A2979 RMK AO2 SLP078 T02500194 55006
KDFW5/20/20242:53 amKDFW 200753Z 17014G19KT 10SM FEW250 25/19 A2979 RMK AO2 SLP076 T02500194
KDFW5/20/20241:53 amKDFW 200653Z 16010KT 10SM CLR 26/19 A2979 RMK AO2 SLP078 T02560194
KDFW5/20/202412:53 amKDFW 200553Z 15008KT 10SM CLR 26/19 A2981 RMK AO2 SLP083 T02560194 10311 20256 403280222 58001
Updated: May 20, 2024 - 4:53 pm